Ace, Texas
Current Conditions -  °F | °C
As of 10:15 AM on Thursday 18 Dec 2014 (Local Time) from K6R3 Reporting Station
Haze Haze  
Wind Chill: 58°   Ceiling: 600
Heat Index: 58°   Visibility: 5mi
Dew Point: 56°   Wind: 3mph
Humidity: 94%   Direction: 50°NE
Pressure: 30.14"   Gusts: NA
Location:  30.54°N, 94.82°W
Report Text: K6R3 181615Z AUTO 05003KT 5SM BR OVC006 15/14 A3014 RMK AO2 T01450135
Loading
Personal Weather Stations






























Interactive Weather Map New forecast layout! Learn more

10-Day Weather Forecast

Advertisements
Track Severe Weather on mobile